Higdonville, North Carolina
Current Conditions -  °F | °C
As of 7:20 PM on Sunday 23 Nov 2014 (Local Time) from KRHP Reporting Station
Scattered Clouds Scattered Clouds  
Wind Chill: 60°   Ceiling: Unl
Heat Index: 60°   Visibility: 10mi
Dew Point: 52°   Wind: 13mph
Humidity: 76%   Direction: 240°WSW
Pressure: 29.65"   Gusts: 17mph
Location:  35.1737°N, 83.4215°W
Report Text: KRHP 240020Z AUTO 24011G15KT 10SM SCT031 SCT046 SCT050 16/11 A2965 RMK AO2 T01550113
Loading
Personal Weather Stations






























Interactive Weather Map New forecast layout! Learn more

10-Day Weather Forecast

Advertisements
Track Severe Weather on mobile